sensor_id;sensor_type;location;lat;lon;timestamp;pressure;altitude;pressure_sealevel;temperature;humidity
30598;BME280;17365;48.878;8.334;2023-03-05T00:01:13;100540.44;;;5.06;65.56
30598;BME280;17365;48.878;8.334;2023-03-05T00:03:39;100531.69;;;4.73;66.46
30598;BME280;17365;48.878;8.334;2023-03-05T00:06:04;100532.19;;;4.88;66.96
30598;BME280;17365;48.878;8.334;2023-03-05T00:08:30;100530.22;;;4.81;66.98
30598;BME280;17365;48.878;8.334;2023-03-05T00:10:56;100534.38;;;5.04;66.15
30598;BME280;17365;48.878;8.334;2023-03-05T00:13:22;100531.22;;;5.13;65.77
30598;BME280;17365;48.878;8.334;2023-03-05T00:15:47;100534.53;;;5.09;66.05
30598;BME280;17365;48.878;8.334;2023-03-05T00:18:12;100532.31;;;4.92;66.81
30598;BME280;17365;48.878;8.334;2023-03-05T00:20:37;100528.09;;;4.94;66.25
30598;BME280;17365;48.878;8.334;2023-03-05T00:23:02;100529.16;;;5.01;66.00
30598;BME280;17365;48.878;8.334;2023-03-05T00:25:28;100524.78;;;5.27;65.36
30598;BME280;17365;48.878;8.334;2023-03-05T00:27:53;100514.94;;;5.42;64.86
30598;BME280;17365;48.878;8.334;2023-03-05T00:30:18;100521.53;;;5.33;64.79
30598;BME280;17365;48.878;8.334;2023-03-05T00:32:43;100514.00;;;5.39;64.79
30598;BME280;17365;48.878;8.334;2023-03-05T00:35:08;100510.69;;;5.14;65.06
30598;BME280;17365;48.878;8.334;2023-03-05T00:37:34;100513.06;;;5.08;65.54
30598;BME280;17365;48.878;8.334;2023-03-05T00:39:59;100513.88;;;5.06;65.71
30598;BME280;17365;48.878;8.334;2023-03-05T00:42:24;100514.38;;;5.22;65.01
30598;BME280;17365;48.878;8.334;2023-03-05T00:44:49;100517.03;;;5.25;64.99
30598;BME280;17365;48.878;8.334;2023-03-05T00:47:14;100510.81;;;5.19;65.08
30598;BME280;17365;48.878;8.334;2023-03-05T00:49:42;100507.06;;;5.08;65.94
30598;BME280;17365;48.878;8.334;2023-03-05T00:52:07;100506.34;;;5.12;65.19
30598;BME280;17365;48.878;8.334;2023-03-05T00:54:32;100505.56;;;5.14;65.61
30598;BME280;17365;48.878;8.334;2023-03-05T00:56:57;100504.38;;;5.03;66.22
30598;BME280;17365;48.878;8.334;2023-03-05T00:59:23;100498.72;;;5.15;66.21
30598;BME280;17365;48.878;8.334;2023-03-05T01:01:48;100491.75;;;5.11;67.53
30598;BME280;17365;48.878;8.334;2023-03-05T01:04:13;100492.44;;;4.77;69.47
30598;BME280;17365;48.878;8.334;2023-03-05T01:06:38;100488.56;;;4.91;69.49
30598;BME280;17365;48.878;8.334;2023-03-05T01:09:06;100491.69;;;4.81;70.29
30598;BME280;17365;48.878;8.334;2023-03-05T01:11:31;100480.34;;;5.03;69.41
30598;BME280;17365;48.878;8.334;2023-03-05T01:13:57;100475.69;;;4.89;69.83
30598;BME280;17365;48.878;8.334;2023-03-05T01:16:22;100474.50;;;5.08;69.54
30598;BME280;17365;48.878;8.334;2023-03-05T01:18:47;100470.00;;;5.00;70.04
30598;BME280;17365;48.878;8.334;2023-03-05T01:21:13;100471.38;;;5.18;69.17
30598;BME280;17365;48.878;8.334;2023-03-05T01:23:38;100471.34;;;5.17;69.38
30598;BME280;17365;48.878;8.334;2023-03-05T01:26:04;100468.28;;;5.00;70.24
30598;BME280;17365;48.878;8.334;2023-03-05T01:28:29;100467.03;;;5.16;69.50
30598;BME280;17365;48.878;8.334;2023-03-05T01:30:54;100464.09;;;5.04;70.48
30598;BME280;17365;48.878;8.334;2023-03-05T01:33:20;100464.53;;;5.19;69.45
30598;BME280;17365;48.878;8.334;2023-03-05T01:35:46;100461.28;;;4.96;70.13
30598;BME280;17365;48.878;8.334;2023-03-05T01:38:11;100454.00;;;4.81;70.96
30598;BME280;17365;48.878;8.334;2023-03-05T01:40:36;100456.91;;;4.92;70.95
30598;BME280;17365;48.878;8.334;2023-03-05T01:45:32;100450.38;;;5.03;70.00
30598;BME280;17365;48.878;8.334;2023-03-05T01:47:58;100446.41;;;5.14;69.55
30598;BME280;17365;48.878;8.334;2023-03-05T01:50:23;100447.53;;;4.94;69.92
30598;BME280;17365;48.878;8.334;2023-03-05T01:52:54;100445.00;;;4.95;69.90
30598;BME280;17365;48.878;8.334;2023-03-05T01:55:22;100437.94;;;4.88;70.36
30598;BME280;17365;48.878;8.334;2023-03-05T01:57:53;100438.91;;;4.92;69.98
30598;BME280;17365;48.878;8.334;2023-03-05T02:00:30;100432.19;;;4.97;69.66
30598;BME280;17365;48.878;8.334;2023-03-05T02:02:56;100426.47;;;4.77;70.24
30598;BME280;17365;48.878;8.334;2023-03-05T02:05:28;100424.75;;;5.06;69.36
30598;BME280;17365;48.878;8.334;2023-03-05T02:07:55;100429.44;;;4.91;69.69
30598;BME280;17365;48.878;8.334;2023-03-05T02:10:27;100427.75;;;4.91;69.37
30598;BME280;17365;48.878;8.334;2023-03-05T02:12:53;100429.06;;;5.07;69.08
30598;BME280;17365;48.878;8.334;2023-03-05T02:15:20;100423.16;;;5.10;69.00
30598;BME280;17365;48.878;8.334;2023-03-05T02:17:45;100421.84;;;4.95;69.52
30598;BME280;17365;48.878;8.334;2023-03-05T02:20:15;100417.09;;;5.09;68.75
30598;BME280;17365;48.878;8.334;2023-03-05T02:22:40;100420.69;;;5.14;68.03
30598;BME280;17365;48.878;8.334;2023-03-05T02:27:40;100413.00;;;5.14;68.33
30598;BME280;17365;48.878;8.334;2023-03-05T02:30:07;100409.94;;;5.28;67.84
30598;BME280;17365;48.878;8.334;2023-03-05T02:32:32;100415.53;;;5.13;68.52
30598;BME280;17365;48.878;8.334;2023-03-05T02:34:58;100406.75;;;5.06;68.58
30598;BME280;17365;48.878;8.334;2023-03-05T02:37:23;100411.03;;;5.06;68.42
30598;BME280;17365;48.878;8.334;2023-03-05T02:39:48;100411.28;;;5.15;68.56
30598;BME280;17365;48.878;8.334;2023-03-05T02:42:13;100402.00;;;4.90;68.82
30598;BME280;17365;48.878;8.334;2023-03-05T02:44:38;100407.69;;;4.80;68.88
30598;BME280;17365;48.878;8.334;2023-03-05T02:47:03;100409.34;;;5.08;68.36
30598;BME280;17365;48.878;8.334;2023-03-05T02:49:29;100405.00;;;5.05;68.42
30598;BME280;17365;48.878;8.334;2023-03-05T02:51:54;100407.97;;;5.19;67.83
30598;BME280;17365;48.878;8.334;2023-03-05T02:54:19;100400.59;;;5.31;67.24
30598;BME280;17365;48.878;8.334;2023-03-05T02:56:44;100390.50;;;5.39;67.53
30598;BME280;17365;48.878;8.334;2023-03-05T02:59:10;100397.13;;;5.31;68.00
30598;BME280;17365;48.878;8.334;2023-03-05T03:01:35;100392.72;;;5.25;68.02
30598;BME280;17365;48.878;8.334;2023-03-05T03:04:00;100384.16;;;5.26;67.60
30598;BME280;17365;48.878;8.334;2023-03-05T03:06:25;100385.88;;;4.65;70.23
30598;BME280;17365;48.878;8.334;2023-03-05T03:08:50;100381.75;;;5.01;69.28
30598;BME280;17365;48.878;8.334;2023-03-05T03:11:16;100383.78;;;5.12;68.73
30598;BME280;17365;48.878;8.334;2023-03-05T03:13:42;100373.19;;;4.72;70.44
30598;BME280;17365;48.878;8.334;2023-03-05T03:16:09;100384.84;;;4.60;71.66
30598;BME280;17365;48.878;8.334;2023-03-05T03:18:35;100380.59;;;4.91;70.53
30598;BME280;17365;48.878;8.334;2023-03-05T03:21:00;100378.38;;;5.03;69.69
30598;BME280;17365;48.878;8.334;2023-03-05T03:23:26;100369.75;;;5.01;68.91
30598;BME280;17365;48.878;8.334;2023-03-05T03:25:51;100370.97;;;5.14;68.87
30598;BME280;17365;48.878;8.334;2023-03-05T03:28:17;100361.44;;;4.80;68.60
30598;BME280;17365;48.878;8.334;2023-03-05T03:30:42;100361.03;;;4.66;68.87
30598;BME280;17365;48.878;8.334;2023-03-05T03:33:07;100365.94;;;4.58;69.83
30598;BME280;17365;48.878;8.334;2023-03-05T03:35:32;100353.81;;;4.83;68.96
30598;BME280;17365;48.878;8.334;2023-03-05T03:37:57;100362.47;;;4.56;69.95
30598;BME280;17365;48.878;8.334;2023-03-05T03:40:23;100359.31;;;4.65;69.21
30598;BME280;17365;48.878;8.334;2023-03-05T03:42:50;100363.66;;;4.67;69.21
30598;BME280;17365;48.878;8.334;2023-03-05T03:45:15;100362.34;;;4.82;68.96
30598;BME280;17365;48.878;8.334;2023-03-05T03:47:40;100354.97;;;4.64;69.18
30598;BME280;17365;48.878;8.334;2023-03-05T03:50:05;100359.78;;;4.82;68.79
30598;BME280;17365;48.878;8.334;2023-03-05T03:52:31;100354.25;;;4.68;69.37
30598;BME280;17365;48.878;8.334;2023-03-05T03:54:56;100359.84;;;4.85;68.28
30598;BME280;17365;48.878;8.334;2023-03-05T03:57:25;100349.22;;;4.43;69.60
30598;BME280;17365;48.878;8.334;2023-03-05T03:59:51;100350.94;;;4.72;69.25
30598;BME280;17365;48.878;8.334;2023-03-05T04:02:16;100342.69;;;4.54;69.37
30598;BME280;17365;48.878;8.334;2023-03-05T04:04:42;100345.44;;;4.60;69.36
30598;BME280;17365;48.878;8.334;2023-03-05T04:07:07;100341.00;;;4.54;69.68
30598;BME280;17365;48.878;8.334;2023-03-05T04:09:32;100342.13;;;4.64;69.21
30598;BME280;17365;48.878;8.334;2023-03-05T04:11:57;100339.50;;;4.62;69.41
30598;BME280;17365;48.878;8.334;2023-03-05T04:14:22;100336.97;;;4.64;69.16
30598;BME280;17365;48.878;8.334;2023-03-05T04:16:48;100325.31;;;4.45;69.10
30598;BME280;17365;48.878;8.334;2023-03-05T04:19:13;100335.78;;;4.53;69.38
30598;BME280;17365;48.878;8.334;2023-03-05T04:21:38;100328.16;;;4.54;69.79
30598;BME280;17365;48.878;8.334;2023-03-05T04:24:04;100336.22;;;4.38;70.23
30598;BME280;17365;48.878;8.334;2023-03-05T04:26:29;100330.16;;;4.64;69.34
30598;BME280;17365;48.878;8.334;2023-03-05T04:28:54;100325.75;;;4.60;69.38
30598;BME280;17365;48.878;8.334;2023-03-05T04:31:20;100321.88;;;4.45;69.46
30598;BME280;17365;48.878;8.334;2023-03-05T04:33:45;100318.19;;;4.36;69.80
30598;BME280;17365;48.878;8.334;2023-03-05T04:36:10;100317.31;;;4.36;70.14
30598;BME280;17365;48.878;8.334;2023-03-05T04:38:35;100316.94;;;4.52;69.94
30598;BME280;17365;48.878;8.334;2023-03-05T04:41:00;100316.38;;;4.62;68.97
30598;BME280;17365;48.878;8.334;2023-03-05T04:43:26;100318.38;;;4.43;69.47
30598;BME280;17365;48.878;8.334;2023-03-05T04:45:51;100321.16;;;4.50;69.19
30598;BME280;17365;48.878;8.334;2023-03-05T04:48:16;100314.09;;;4.72;68.77
30598;BME280;17365;48.878;8.334;2023-03-05T04:50:42;100316.53;;;4.67;68.55
30598;BME280;17365;48.878;8.334;2023-03-05T04:53:07;100307.41;;;4.48;68.96
30598;BME280;17365;48.878;8.334;2023-03-05T04:55:33;100313.47;;;4.80;68.29
30598;BME280;17365;48.878;8.334;2023-03-05T04:57:58;100305.84;;;4.83;67.93
30598;BME280;17365;48.878;8.334;2023-03-05T05:00:23;100305.69;;;4.77;67.98
30598;BME280;17365;48.878;8.334;2023-03-05T05:02:49;100305.69;;;4.77;67.85
30598;BME280;17365;48.878;8.334;2023-03-05T05:05:24;100311.50;;;4.72;68.35
30598;BME280;17365;48.878;8.334;2023-03-05T05:07:52;100308.00;;;4.68;68.28
30598;BME280;17365;48.878;8.334;2023-03-05T05:10:18;100304.94;;;4.81;68.23
30598;BME280;17365;48.878;8.334;2023-03-05T05:12:43;100306.19;;;4.95;67.76
30598;BME280;17365;48.878;8.334;2023-03-05T05:15:08;100301.06;;;4.97;67.55
30598;BME280;17365;48.878;8.334;2023-03-05T05:17:34;100298.81;;;4.76;68.48
30598;BME280;17365;48.878;8.334;2023-03-05T05:19:59;100301.66;;;4.87;67.92
30598;BME280;17365;48.878;8.334;2023-03-05T05:22:26;100296.63;;;4.90;67.97
30598;BME280;17365;48.878;8.334;2023-03-05T05:24:51;100295.59;;;4.85;68.14
30598;BME280;17365;48.878;8.334;2023-03-05T05:27:17;100297.78;;;4.71;68.86
30598;BME280;17365;48.878;8.334;2023-03-05T05:29:42;100290.13;;;4.73;68.75
30598;BME280;17365;48.878;8.334;2023-03-05T05:32:09;100287.47;;;4.70;68.68
30598;BME280;17365;48.878;8.334;2023-03-05T05:34:34;100289.28;;;4.74;68.89
30598;BME280;17365;48.878;8.334;2023-03-05T05:36:59;100290.50;;;4.55;69.42
30598;BME280;17365;48.878;8.334;2023-03-05T05:39:24;100296.25;;;4.76;69.06
30598;BME280;17365;48.878;8.334;2023-03-05T05:41:50;100290.81;;;4.65;69.27
30598;BME280;17365;48.878;8.334;2023-03-05T05:44:15;100299.56;;;4.74;69.21
30598;BME280;17365;48.878;8.334;2023-03-05T05:46:41;100297.56;;;4.63;68.68
30598;BME280;17365;48.878;8.334;2023-03-05T05:49:06;100295.97;;;4.67;69.03
30598;BME280;17365;48.878;8.334;2023-03-05T05:51:31;100293.47;;;4.70;68.88
30598;BME280;17365;48.878;8.334;2023-03-05T05:53:56;100297.88;;;4.74;68.73
30598;BME280;17365;48.878;8.334;2023-03-05T05:56:21;100295.75;;;4.89;68.50
30598;BME280;17365;48.878;8.334;2023-03-05T05:58:47;100299.44;;;4.99;68.19
30598;BME280;17365;48.878;8.334;2023-03-05T06:01:16;100299.59;;;4.75;68.83
30598;BME280;17365;48.878;8.334;2023-03-05T06:03:42;100298.03;;;4.79;69.13
30598;BME280;17365;48.878;8.334;2023-03-05T06:06:11;100300.28;;;4.68;69.60
30598;BME280;17365;48.878;8.334;2023-03-05T06:08:37;100297.53;;;4.62;70.09
30598;BME280;17365;48.878;8.334;2023-03-05T06:11:02;100297.69;;;4.66;70.15
30598;BME280;17365;48.878;8.334;2023-03-05T06:13:27;100292.59;;;4.39;71.06
30598;BME280;17365;48.878;8.334;2023-03-05T06:15:56;100297.88;;;4.44;71.11
30598;BME280;17365;48.878;8.334;2023-03-05T06:18:22;100301.16;;;4.40;71.45
30598;BME280;17365;48.878;8.334;2023-03-05T06:20:57;100293.03;;;4.25;71.85
30598;BME280;17365;48.878;8.334;2023-03-05T06:23:23;100299.28;;;4.06;73.20
30598;BME280;17365;48.878;8.334;2023-03-05T06:25:49;100291.22;;;3.94;74.63
30598;BME280;17365;48.878;8.334;2023-03-05T06:28:14;100291.50;;;4.03;74.57
30598;BME280;17365;48.878;8.334;2023-03-05T06:30:39;100287.41;;;4.38;72.83
30598;BME280;17365;48.878;8.334;2023-03-05T06:33:04;100284.94;;;4.41;72.90
30598;BME280;17365;48.878;8.334;2023-03-05T06:35:30;100286.94;;;4.51;72.37
30598;BME280;17365;48.878;8.334;2023-03-05T06:37:56;100281.28;;;4.93;70.82
30598;BME280;17365;48.878;8.334;2023-03-05T06:40:21;100277.78;;;4.91;70.74
30598;BME280;17365;48.878;8.334;2023-03-05T06:42:46;100277.16;;;4.68;72.32
30598;BME280;17365;48.878;8.334;2023-03-05T06:45:11;100289.94;;;4.65;72.49
30598;BME280;17365;48.878;8.334;2023-03-05T06:47:37;100289.19;;;4.11;74.97
30598;BME280;17365;48.878;8.334;2023-03-05T06:50:02;100284.66;;;4.30;74.68
30598;BME280;17365;48.878;8.334;2023-03-05T06:52:27;100285.91;;;4.45;74.61
30598;BME280;17365;48.878;8.334;2023-03-05T06:54:52;100287.22;;;4.30;75.04
30598;BME280;17365;48.878;8.334;2023-03-05T06:57:19;100285.81;;;4.13;75.89
30598;BME280;17365;48.878;8.334;2023-03-05T06:59:45;100284.81;;;4.36;75.15
30598;BME280;17365;48.878;8.334;2023-03-05T07:02:10;100278.59;;;4.30;75.71
30598;BME280;17365;48.878;8.334;2023-03-05T07:04:36;100277.41;;;4.47;74.58
30598;BME280;17365;48.878;8.334;2023-03-05T07:07:02;100277.59;;;4.53;73.27
30598;BME280;17365;48.878;8.334;2023-03-05T07:09:27;100273.72;;;4.67;72.21
30598;BME280;17365;48.878;8.334;2023-03-05T07:11:52;100277.84;;;4.62;71.61
30598;BME280;17365;48.878;8.334;2023-03-05T07:14:17;100279.66;;;4.65;71.96
30598;BME280;17365;48.878;8.334;2023-03-05T07:16:42;100276.13;;;4.63;71.52
30598;BME280;17365;48.878;8.334;2023-03-05T07:19:09;100278.00;;;4.67;71.78
30598;BME280;17365;48.878;8.334;2023-03-05T07:21:34;100271.88;;;4.63;71.10
30598;BME280;17365;48.878;8.334;2023-03-05T07:24:00;100274.31;;;4.59;71.11
30598;BME280;17365;48.878;8.334;2023-03-05T07:26:27;100271.06;;;4.96;69.74
30598;BME280;17365;48.878;8.334;2023-03-05T07:28:52;100266.59;;;4.57;70.54
30598;BME280;17365;48.878;8.334;2023-03-05T07:31:21;100272.63;;;4.89;70.39
30598;BME280;17365;48.878;8.334;2023-03-05T07:33:51;100273.44;;;4.88;69.58
30598;BME280;17365;48.878;8.334;2023-03-05T07:36:16;100263.66;;;5.08;68.63
30598;BME280;17365;48.878;8.334;2023-03-05T07:38:42;100262.94;;;4.81;68.66
30598;BME280;17365;48.878;8.334;2023-03-05T07:41:11;100262.22;;;5.18;68.51
30598;BME280;17365;48.878;8.334;2023-03-05T07:43:37;100255.81;;;5.35;68.41
30598;BME280;17365;48.878;8.334;2023-03-05T07:46:10;100256.63;;;5.33;67.78
30598;BME280;17365;48.878;8.334;2023-03-05T07:48:35;100256.34;;;5.22;67.07
30598;BME280;17365;48.878;8.334;2023-03-05T07:51:01;100260.63;;;5.56;67.00
30598;BME280;17365;48.878;8.334;2023-03-05T07:53:27;100262.56;;;5.66;66.46
30598;BME280;17365;48.878;8.334;2023-03-05T07:55:52;100259.53;;;5.82;66.19
30598;BME280;17365;48.878;8.334;2023-03-05T07:58:17;100262.47;;;5.63;66.25
30598;BME280;17365;48.878;8.334;2023-03-05T08:00:43;100263.28;;;5.61;66.81
30598;BME280;17365;48.878;8.334;2023-03-05T08:03:08;100255.38;;;5.53;65.89
30598;BME280;17365;48.878;8.334;2023-03-05T08:05:33;100254.28;;;5.43;66.40
30598;BME280;17365;48.878;8.334;2023-03-05T08:07:59;100253.88;;;5.26;66.92
30598;BME280;17365;48.878;8.334;2023-03-05T08:10:24;100260.78;;;5.64;66.95
30598;BME280;17365;48.878;8.334;2023-03-05T08:12:49;100249.50;;;5.93;65.84
30598;BME280;17365;48.878;8.334;2023-03-05T08:15:14;100265.63;;;5.88;65.85
30598;BME280;17365;48.878;8.334;2023-03-05T08:17:40;100251.47;;;5.33;67.15
30598;BME280;17365;48.878;8.334;2023-03-05T08:20:05;100254.53;;;5.19;68.42
30598;BME280;17365;48.878;8.334;2023-03-05T08:22:34;100258.34;;;5.34;68.73
30598;BME280;17365;48.878;8.334;2023-03-05T08:25:00;100250.03;;;5.11;70.05
30598;BME280;17365;48.878;8.334;2023-03-05T08:27:25;100255.47;;;5.21;69.54
30598;BME280;17365;48.878;8.334;2023-03-05T08:29:50;100246.88;;;5.21;69.75
30598;BME280;17365;48.878;8.334;2023-03-05T08:32:15;100241.41;;;5.43;69.76
30598;BME280;17365;48.878;8.334;2023-03-05T08:34:40;100243.88;;;5.04;69.69
30598;BME280;17365;48.878;8.334;2023-03-05T08:37:06;100242.69;;;5.24;69.70
30598;BME280;17365;48.878;8.334;2023-03-05T08:39:33;100236.34;;;5.12;69.67
30598;BME280;17365;48.878;8.334;2023-03-05T08:41:58;100234.41;;;5.36;70.09
30598;BME280;17365;48.878;8.334;2023-03-05T08:44:23;100241.19;;;5.33;70.01
30598;BME280;17365;48.878;8.334;2023-03-05T08:46:48;100241.84;;;5.60;69.39
30598;BME280;17365;48.878;8.334;2023-03-05T08:49:13;100240.09;;;5.59;68.40
30598;BME280;17365;48.878;8.334;2023-03-05T08:51:39;100238.06;;;5.82;67.68
30598;BME280;17365;48.878;8.334;2023-03-05T08:54:04;100231.72;;;5.68;67.73
30598;BME280;17365;48.878;8.334;2023-03-05T08:56:32;100237.94;;;5.77;67.04
30598;BME280;17365;48.878;8.334;2023-03-05T08:58:57;100225.31;;;5.88;66.83
30598;BME280;17365;48.878;8.334;2023-03-05T09:01:22;100229.19;;;5.69;66.41
30598;BME280;17365;48.878;8.334;2023-03-05T09:03:47;100232.16;;;5.50;67.24
30598;BME280;17365;48.878;8.334;2023-03-05T09:06:13;100227.50;;;5.35;67.31
30598;BME280;17365;48.878;8.334;2023-03-05T09:08:38;100225.16;;;5.44;66.96
30598;BME280;17365;48.878;8.334;2023-03-05T09:11:05;100227.31;;;5.28;67.02
30598;BME280;17365;48.878;8.334;2023-03-05T09:13:30;100226.66;;;5.71;66.51
30598;BME280;17365;48.878;8.334;2023-03-05T09:15:56;100225.75;;;5.69;66.56
30598;BME280;17365;48.878;8.334;2023-03-05T09:18:21;100225.22;;;5.83;66.13
30598;BME280;17365;48.878;8.334;2023-03-05T09:20:47;100223.91;;;5.65;66.66
30598;BME280;17365;48.878;8.334;2023-03-05T09:23:12;100222.75;;;5.52;67.15
30598;BME280;17365;48.878;8.334;2023-03-05T09:25:38;100217.66;;;5.53;67.32
30598;BME280;17365;48.878;8.334;2023-03-05T09:28:04;100216.03;;;5.57;67.37
30598;BME280;17365;48.878;8.334;2023-03-05T09:30:29;100212.84;;;5.67;67.05
30598;BME280;17365;48.878;8.334;2023-03-05T09:32:54;100218.63;;;5.59;66.97
30598;BME280;17365;48.878;8.334;2023-03-05T09:35:19;100210.97;;;5.25;67.87
30598;BME280;17365;48.878;8.334;2023-03-05T09:37:44;100211.50;;;5.12;68.44
30598;BME280;17365;48.878;8.334;2023-03-05T09:40:13;100201.56;;;5.26;68.02
30598;BME280;17365;48.878;8.334;2023-03-05T09:42:44;100210.94;;;5.60;67.32
30598;BME280;17365;48.878;8.334;2023-03-05T09:47:57;100198.13;;;5.99;65.33
30598;BME280;17365;48.878;8.334;2023-03-05T09:50:37;100200.19;;;6.14;64.90
30598;BME280;17365;48.878;8.334;2023-03-05T09:53:12;100203.19;;;6.35;64.12
30598;BME280;17365;48.878;8.334;2023-03-05T09:55:44;100200.59;;;5.57;66.22
30598;BME280;17365;48.878;8.334;2023-03-05T10:00:40;100203.44;;;5.69;66.86
30598;BME280;17365;48.878;8.334;2023-03-05T10:03:11;100208.31;;;5.57;67.02
30598;BME280;17365;48.878;8.334;2023-03-05T10:05:51;100200.44;;;5.51;67.49
30598;BME280;17365;48.878;8.334;2023-03-05T10:08:20;100194.81;;;6.03;66.09
30598;BME280;17365;48.878;8.334;2023-03-05T10:10:47;100202.00;;;6.20;65.27
30598;BME280;17365;48.878;8.334;2023-03-05T10:13:24;100194.53;;;6.32;64.92
30598;BME280;17365;48.878;8.334;2023-03-05T10:15:53;100194.91;;;6.09;65.76
30598;BME280;17365;48.878;8.334;2023-03-05T10:18:30;100193.16;;;6.49;64.60
30598;BME280;17365;48.878;8.334;2023-03-05T10:23:24;100191.19;;;6.81;63.36
30598;BME280;17365;48.878;8.334;2023-03-05T10:26:01;100185.47;;;6.99;63.29
30598;BME280;17365;48.878;8.334;2023-03-05T10:38:58;100170.28;;;7.16;62.34
30598;BME280;17365;48.878;8.334;2023-03-05T10:41:48;100166.97;;;6.73;63.43
30598;BME280;17365;48.878;8.334;2023-03-05T10:46:45;100158.22;;;6.65;63.83
30598;BME280;17365;48.878;8.334;2023-03-05T10:49:14;100150.53;;;6.68;63.91
30598;BME280;17365;48.878;8.334;2023-03-05T10:51:49;100157.50;;;6.72;64.40
30598;BME280;17365;48.878;8.334;2023-03-05T10:54:23;100147.50;;;6.90;63.74
30598;BME280;17365;48.878;8.334;2023-03-05T10:56:49;100148.69;;;7.11;63.02
30598;BME280;17365;48.878;8.334;2023-03-05T10:59:15;100145.63;;;6.80;63.38
30598;BME280;17365;48.878;8.334;2023-03-05T11:01:40;100143.47;;;7.06;63.13
30598;BME280;17365;48.878;8.334;2023-03-05T11:04:06;100130.97;;;7.30;62.19
30598;BME280;17365;48.878;8.334;2023-03-05T11:06:41;100140.91;;;7.08;62.92
30598;BME280;17365;48.878;8.334;2023-03-05T11:11:35;100124.91;;;7.27;62.01
30598;BME280;17365;48.878;8.334;2023-03-05T11:14:01;100126.94;;;7.49;61.48
30598;BME280;17365;48.878;8.334;2023-03-05T11:16:29;100121.47;;;7.28;61.87
30598;BME280;17365;48.878;8.334;2023-03-05T11:21:39;100110.75;;;7.59;61.43
30598;BME280;17365;48.878;8.334;2023-03-05T11:24:17;100108.38;;;7.76;61.32
30598;BME280;17365;48.878;8.334;2023-03-05T11:26:47;100111.09;;;7.85;60.02
30598;BME280;17365;48.878;8.334;2023-03-05T11:29:20;100099.16;;;7.95;59.85
30598;BME280;17365;48.878;8.334;2023-03-05T11:31:46;100100.66;;;7.79;60.34
30598;BME280;17365;48.878;8.334;2023-03-05T11:36:43;100095.31;;;7.64;60.81
30598;BME280;17365;48.878;8.334;2023-03-05T11:46:44;100088.13;;;6.87;63.40
30598;BME280;17365;48.878;8.334;2023-03-05T11:49:11;100090.72;;;6.87;63.52
30598;BME280;17365;48.878;8.334;2023-03-05T11:51:50;100086.03;;;7.16;62.29
30598;BME280;17365;48.878;8.334;2023-03-05T11:54:20;100085.66;;;6.43;64.94
30598;BME280;17365;48.878;8.334;2023-03-05T11:56:47;100081.41;;;6.95;63.93
30598;BME280;17365;48.878;8.334;2023-03-05T11:59:15;100077.06;;;6.91;63.67
30598;BME280;17365;48.878;8.334;2023-03-05T12:01:46;100084.03;;;7.00;62.87
30598;BME280;17365;48.878;8.334;2023-03-05T12:04:12;100073.63;;;6.91;63.42
30598;BME280;17365;48.878;8.334;2023-03-05T12:06:48;100072.03;;;7.02;63.28
30598;BME280;17365;48.878;8.334;2023-03-05T12:09:17;100061.78;;;6.52;64.12
30598;BME280;17365;48.878;8.334;2023-03-05T12:11:46;100061.53;;;6.90;63.59
30598;BME280;17365;48.878;8.334;2023-03-05T12:16:57;100047.16;;;7.04;62.36
30598;BME280;17365;48.878;8.334;2023-03-05T12:21:52;100040.84;;;6.34;64.83
30598;BME280;17365;48.878;8.334;2023-03-05T12:31:58;100023.69;;;6.89;64.32
30598;BME280;17365;48.878;8.334;2023-03-05T12:37:06;100025.53;;;6.96;63.84
30598;BME280;17365;48.878;8.334;2023-03-05T12:39:41;100024.16;;;7.19;63.48
30598;BME280;17365;48.878;8.334;2023-03-05T12:42:38;100009.28;;;7.01;63.73
30598;BME280;17365;48.878;8.334;2023-03-05T12:47:46;100001.22;;;7.39;63.04
30598;BME280;17365;48.878;8.334;2023-03-05T12:50:45;99996.03;;;7.39;61.91
30598;BME280;17365;48.878;8.334;2023-03-05T12:53:16;99996.75;;;7.26;62.21
30598;BME280;17365;48.878;8.334;2023-03-05T13:01:26;99990.34;;;6.99;63.18
30598;BME280;17365;48.878;8.334;2023-03-05T13:03:44;99993.63;;;6.89;63.47
30598;BME280;17365;48.878;8.334;2023-03-05T13:06:32;99982.13;;;6.67;64.35
30598;BME280;17365;48.878;8.334;2023-03-05T13:09:02;99977.31;;;6.90;64.14
30598;BME280;17365;48.878;8.334;2023-03-05T13:11:29;99974.72;;;6.89;64.30
30598;BME280;17365;48.878;8.334;2023-03-05T13:13:55;99982.41;;;6.86;64.43
30598;BME280;17365;48.878;8.334;2023-03-05T13:16:25;99974.00;;;6.41;65.41
30598;BME280;17365;48.878;8.334;2023-03-05T13:18:51;99976.94;;;6.64;64.75
30598;BME280;17365;48.878;8.334;2023-03-05T13:21:18;99975.63;;;6.91;64.11
30598;BME280;17365;48.878;8.334;2023-03-05T13:23:50;99967.06;;;6.93;64.05
30598;BME280;17365;48.878;8.334;2023-03-05T13:26:21;99973.84;;;6.88;64.29
30598;BME280;17365;48.878;8.334;2023-03-05T13:31:27;99971.66;;;7.16;63.35
30598;BME280;17365;48.878;8.334;2023-03-05T13:33:57;99970.56;;;6.98;64.28
30598;BME280;17365;48.878;8.334;2023-03-05T13:36:32;99967.47;;;6.65;65.17
30598;BME280;17365;48.878;8.334;2023-03-05T13:38:57;99961.66;;;6.78;65.31
30598;BME280;17365;48.878;8.334;2023-03-05T13:41:24;99961.19;;;7.04;63.92
30598;BME280;17365;48.878;8.334;2023-03-05T13:43:54;99956.09;;;6.49;65.76
30598;BME280;17365;48.878;8.334;2023-03-05T13:46:26;99955.88;;;6.91;65.14
30598;BME280;17365;48.878;8.334;2023-03-05T13:48:52;99958.59;;;7.04;64.54
30598;BME280;17365;48.878;8.334;2023-03-05T13:51:17;99951.66;;;6.99;64.48
30598;BME280;17365;48.878;8.334;2023-03-05T13:53:42;99949.25;;;7.13;64.33
30598;BME280;17365;48.878;8.334;2023-03-05T13:56:12;99952.06;;;6.68;65.23
30598;BME280;17365;48.878;8.334;2023-03-05T13:58:50;99945.81;;;7.13;64.22
30598;BME280;17365;48.878;8.334;2023-03-05T14:03:49;99940.56;;;7.05;64.04
30598;BME280;17365;48.878;8.334;2023-03-05T14:06:16;99940.41;;;6.93;64.17
30598;BME280;17365;48.878;8.334;2023-03-05T14:08:42;99934.41;;;6.94;64.28